sensor_id;sensor_type;location;lat;lon;timestamp;temperature;humidity
360;DHT22;168;48.872;9.226;2023-09-18T00:00:36;21.90;90.30
360;DHT22;168;48.872;9.226;2023-09-18T00:03:03;21.80;90.30
360;DHT22;168;48.872;9.226;2023-09-18T00:05:31;21.80;90.50
360;DHT22;168;48.872;9.226;2023-09-18T00:07:59;21.80;90.50
360;DHT22;168;48.872;9.226;2023-09-18T00:10:29;21.80;90.60
360;DHT22;168;48.872;9.226;2023-09-18T00:12:57;21.80;90.70
360;DHT22;168;48.872;9.226;2023-09-18T00:15:24;21.80;90.40
360;DHT22;168;48.872;9.226;2023-09-18T00:17:52;21.80;90.40
360;DHT22;168;48.872;9.226;2023-09-18T00:20:20;21.80;90.70
360;DHT22;168;48.872;9.226;2023-09-18T00:22:53;21.80;90.50
360;DHT22;168;48.872;9.226;2023-09-18T00:25:20;21.80;90.60
360;DHT22;168;48.872;9.226;2023-09-18T00:27:49;21.80;90.60
360;DHT22;168;48.872;9.226;2023-09-18T00:30:17;21.80;90.90
360;DHT22;168;48.872;9.226;2023-09-18T00:32:45;21.70;90.80
360;DHT22;168;48.872;9.226;2023-09-18T00:35:13;21.70;90.80
360;DHT22;168;48.872;9.226;2023-09-18T00:37:40;21.70;90.70
360;DHT22;168;48.872;9.226;2023-09-18T00:40:09;21.70;90.70
360;DHT22;168;48.872;9.226;2023-09-18T00:42:38;21.70;90.70
360;DHT22;168;48.872;9.226;2023-09-18T00:45:07;21.70;91.10
360;DHT22;168;48.872;9.226;2023-09-18T00:47:35;21.80;91.10
360;DHT22;168;48.872;9.226;2023-09-18T00:50:04;21.80;91.10
360;DHT22;168;48.872;9.226;2023-09-18T00:52:33;21.80;90.90
360;DHT22;168;48.872;9.226;2023-09-18T00:55:01;21.80;90.90
360;DHT22;168;48.872;9.226;2023-09-18T00:57:29;21.80;90.80
360;DHT22;168;48.872;9.226;2023-09-18T00:59:56;21.80;91.00
360;DHT22;168;48.872;9.226;2023-09-18T01:02:25;21.90;90.90
360;DHT22;168;48.872;9.226;2023-09-18T01:04:52;21.90;90.90
360;DHT22;168;48.872;9.226;2023-09-18T01:07:20;22.00;90.70
360;DHT22;168;48.872;9.226;2023-09-18T01:09:47;22.00;90.60
360;DHT22;168;48.872;9.226;2023-09-18T01:12:18;22.00;90.60
360;DHT22;168;48.872;9.226;2023-09-18T01:14:54;22.10;90.40
360;DHT22;168;48.872;9.226;2023-09-18T01:17:26;22.10;90.20
360;DHT22;168;48.872;9.226;2023-09-18T01:19:53;22.10;90.20
360;DHT22;168;48.872;9.226;2023-09-18T01:22:21;22.10;90.10
360;DHT22;168;48.872;9.226;2023-09-18T01:24:50;22.10;90.20
360;DHT22;168;48.872;9.226;2023-09-18T01:27:18;22.20;90.00
360;DHT22;168;48.872;9.226;2023-09-18T01:29:46;22.20;89.80
360;DHT22;168;48.872;9.226;2023-09-18T01:32:14;22.20;89.50
360;DHT22;168;48.872;9.226;2023-09-18T01:34:46;22.30;89.40
360;DHT22;168;48.872;9.226;2023-09-18T01:37:16;22.30;89.50
360;DHT22;168;48.872;9.226;2023-09-18T01:39:44;22.30;89.20
360;DHT22;168;48.872;9.226;2023-09-18T01:42:14;22.40;89.00
360;DHT22;168;48.872;9.226;2023-09-18T01:44:42;22.40;89.00
360;DHT22;168;48.872;9.226;2023-09-18T01:47:14;22.40;89.00
360;DHT22;168;48.872;9.226;2023-09-18T01:49:42;22.50;88.80
360;DHT22;168;48.872;9.226;2023-09-18T01:52:10;22.50;88.70
360;DHT22;168;48.872;9.226;2023-09-18T01:54:37;22.60;88.50
360;DHT22;168;48.872;9.226;2023-09-18T01:57:05;22.60;88.60
360;DHT22;168;48.872;9.226;2023-09-18T01:59:34;22.70;88.80
360;DHT22;168;48.872;9.226;2023-09-18T02:02:02;22.70;88.70
360;DHT22;168;48.872;9.226;2023-09-18T02:04:33;22.60;88.60
360;DHT22;168;48.872;9.226;2023-09-18T02:07:00;22.70;87.70
360;DHT22;168;48.872;9.226;2023-09-18T02:09:28;22.80;86.80
360;DHT22;168;48.872;9.226;2023-09-18T02:11:55;22.80;87.00
360;DHT22;168;48.872;9.226;2023-09-18T02:14:23;22.90;86.50
360;DHT22;168;48.872;9.226;2023-09-18T02:16:51;23.00;86.80
360;DHT22;168;48.872;9.226;2023-09-18T02:19:20;23.00;87.90
360;DHT22;168;48.872;9.226;2023-09-18T02:21:47;22.90;89.70
360;DHT22;168;48.872;9.226;2023-09-18T02:24:14;22.90;90.00
360;DHT22;168;48.872;9.226;2023-09-18T02:26:42;22.90;90.30
360;DHT22;168;48.872;9.226;2023-09-18T02:29:09;22.90;91.20
360;DHT22;168;48.872;9.226;2023-09-18T02:31:37;22.90;91.30
360;DHT22;168;48.872;9.226;2023-09-18T02:34:06;22.90;91.50
360;DHT22;168;48.872;9.226;2023-09-18T02:36:35;22.80;91.30
360;DHT22;168;48.872;9.226;2023-09-18T02:39:02;22.80;91.30
360;DHT22;168;48.872;9.226;2023-09-18T02:41:30;22.70;91.50
360;DHT22;168;48.872;9.226;2023-09-18T02:43:57;22.70;91.50
360;DHT22;168;48.872;9.226;2023-09-18T02:46:25;22.80;91.00
360;DHT22;168;48.872;9.226;2023-09-18T02:48:52;22.70;87.20
360;DHT22;168;48.872;9.226;2023-09-18T02:51:21;22.80;88.10
360;DHT22;168;48.872;9.226;2023-09-18T02:53:49;22.70;89.90
360;DHT22;168;48.872;9.226;2023-09-18T02:56:16;22.50;91.10
360;DHT22;168;48.872;9.226;2023-09-18T02:58:44;22.30;91.70
360;DHT22;168;48.872;9.226;2023-09-18T03:01:12;22.20;92.20
360;DHT22;168;48.872;9.226;2023-09-18T03:03:39;22.10;92.50
360;DHT22;168;48.872;9.226;2023-09-18T03:06:07;22.10;92.70
360;DHT22;168;48.872;9.226;2023-09-18T03:08:36;22.10;92.60
360;DHT22;168;48.872;9.226;2023-09-18T03:11:10;22.00;92.30
360;DHT22;168;48.872;9.226;2023-09-18T03:13:43;22.10;91.80
360;DHT22;168;48.872;9.226;2023-09-18T03:16:11;22.10;91.80
360;DHT22;168;48.872;9.226;2023-09-18T03:18:38;22.00;92.30
360;DHT22;168;48.872;9.226;2023-09-18T03:21:11;22.10;92.10
360;DHT22;168;48.872;9.226;2023-09-18T03:23:43;22.10;92.20
360;DHT22;168;48.872;9.226;2023-09-18T03:26:10;21.90;92.50
360;DHT22;168;48.872;9.226;2023-09-18T03:28:37;21.80;93.10
360;DHT22;168;48.872;9.226;2023-09-18T03:31:05;21.80;93.60
360;DHT22;168;48.872;9.226;2023-09-18T03:33:32;21.80;93.60
360;DHT22;168;48.872;9.226;2023-09-18T03:36:00;21.80;93.60
360;DHT22;168;48.872;9.226;2023-09-18T03:38:27;21.80;93.60
360;DHT22;168;48.872;9.226;2023-09-18T03:40:59;21.80;93.70
360;DHT22;168;48.872;9.226;2023-09-18T03:43:27;21.80;93.60
360;DHT22;168;48.872;9.226;2023-09-18T03:45:54;21.80;93.60
360;DHT22;168;48.872;9.226;2023-09-18T03:48:21;21.80;93.60
360;DHT22;168;48.872;9.226;2023-09-18T03:50:48;21.90;93.50
360;DHT22;168;48.872;9.226;2023-09-18T03:53:16;21.90;93.40
360;DHT22;168;48.872;9.226;2023-09-18T03:55:44;21.90;93.50
360;DHT22;168;48.872;9.226;2023-09-18T03:58:12;21.90;93.50
360;DHT22;168;48.872;9.226;2023-09-18T04:00:40;21.90;93.50
360;DHT22;168;48.872;9.226;2023-09-18T04:03:08;21.90;93.40
360;DHT22;168;48.872;9.226;2023-09-18T04:05:36;21.80;93.60
360;DHT22;168;48.872;9.226;2023-09-18T04:08:04;21.80;93.60
360;DHT22;168;48.872;9.226;2023-09-18T04:10:31;21.80;93.50
360;DHT22;168;48.872;9.226;2023-09-18T04:12:59;21.80;93.60
360;DHT22;168;48.872;9.226;2023-09-18T04:15:28;21.80;93.60
360;DHT22;168;48.872;9.226;2023-09-18T04:17:56;21.90;93.50
360;DHT22;168;48.872;9.226;2023-09-18T04:20:24;21.90;93.70
360;DHT22;168;48.872;9.226;2023-09-18T04:23:19;21.90;93.90
360;DHT22;168;48.872;9.226;2023-09-18T04:25:46;21.80;94.00
360;DHT22;168;48.872;9.226;2023-09-18T04:28:14;21.60;94.00
360;DHT22;168;48.872;9.226;2023-09-18T04:30:43;21.40;94.00
360;DHT22;168;48.872;9.226;2023-09-18T04:33:10;21.30;93.80
360;DHT22;168;48.872;9.226;2023-09-18T04:35:38;21.30;93.30
360;DHT22;168;48.872;9.226;2023-09-18T04:38:06;21.30;93.40
360;DHT22;168;48.872;9.226;2023-09-18T04:40:34;21.30;93.00
360;DHT22;168;48.872;9.226;2023-09-18T04:43:02;21.30;92.90
360;DHT22;168;48.872;9.226;2023-09-18T04:45:30;21.30;93.30
360;DHT22;168;48.872;9.226;2023-09-18T04:47:59;21.20;93.30
360;DHT22;168;48.872;9.226;2023-09-18T04:50:26;21.30;93.80
360;DHT22;168;48.872;9.226;2023-09-18T04:52:54;21.20;93.90
360;DHT22;168;48.872;9.226;2023-09-18T04:55:22;21.10;93.70
360;DHT22;168;48.872;9.226;2023-09-18T04:57:49;21.10;93.50
360;DHT22;168;48.872;9.226;2023-09-18T05:00:17;21.10;93.50
360;DHT22;168;48.872;9.226;2023-09-18T05:02:44;21.00;93.10
360;DHT22;168;48.872;9.226;2023-09-18T05:05:14;21.00;92.80
360;DHT22;168;48.872;9.226;2023-09-18T05:07:42;21.00;92.80
360;DHT22;168;48.872;9.226;2023-09-18T05:10:09;21.10;93.20
360;DHT22;168;48.872;9.226;2023-09-18T05:12:39;21.10;93.40
360;DHT22;168;48.872;9.226;2023-09-18T05:15:07;21.10;93.30
360;DHT22;168;48.872;9.226;2023-09-18T05:17:42;21.10;93.00
360;DHT22;168;48.872;9.226;2023-09-18T05:20:11;21.00;92.50
360;DHT22;168;48.872;9.226;2023-09-18T05:22:43;21.00;92.10
360;DHT22;168;48.872;9.226;2023-09-18T05:25:11;21.00;92.10
360;DHT22;168;48.872;9.226;2023-09-18T05:27:40;21.00;92.20
360;DHT22;168;48.872;9.226;2023-09-18T05:30:12;21.00;92.30
360;DHT22;168;48.872;9.226;2023-09-18T05:32:41;21.10;92.50
360;DHT22;168;48.872;9.226;2023-09-18T05:35:09;21.10;92.90
360;DHT22;168;48.872;9.226;2023-09-18T05:37:38;21.10;93.10
360;DHT22;168;48.872;9.226;2023-09-18T05:40:10;21.10;93.40
360;DHT22;168;48.872;9.226;2023-09-18T05:42:38;21.20;93.20
360;DHT22;168;48.872;9.226;2023-09-18T05:45:09;21.20;93.00
360;DHT22;168;48.872;9.226;2023-09-18T05:47:37;21.20;93.20
360;DHT22;168;48.872;9.226;2023-09-18T05:50:05;21.20;93.20
360;DHT22;168;48.872;9.226;2023-09-18T05:52:33;21.20;93.30
360;DHT22;168;48.872;9.226;2023-09-18T05:55:00;21.20;93.10
360;DHT22;168;48.872;9.226;2023-09-18T05:57:29;21.30;93.10
360;DHT22;168;48.872;9.226;2023-09-18T05:59:57;21.30;93.30
360;DHT22;168;48.872;9.226;2023-09-18T06:02:24;21.30;93.70
360;DHT22;168;48.872;9.226;2023-09-18T06:04:54;21.40;94.10
360;DHT22;168;48.872;9.226;2023-09-18T06:07:24;21.50;94.20
360;DHT22;168;48.872;9.226;2023-09-18T06:09:51;21.50;94.20
360;DHT22;168;48.872;9.226;2023-09-18T06:12:19;21.50;94.20
360;DHT22;168;48.872;9.226;2023-09-18T06:14:48;21.50;94.20
360;DHT22;168;48.872;9.226;2023-09-18T06:17:15;21.60;94.20
360;DHT22;168;48.872;9.226;2023-09-18T06:19:44;21.60;94.20
360;DHT22;168;48.872;9.226;2023-09-18T06:22:12;21.70;94.20
360;DHT22;168;48.872;9.226;2023-09-18T06:24:39;21.70;94.20
360;DHT22;168;48.872;9.226;2023-09-18T06:27:06;21.80;94.20
360;DHT22;168;48.872;9.226;2023-09-18T06:29:34;21.80;94.30
360;DHT22;168;48.872;9.226;2023-09-18T06:32:05;21.80;94.00
360;DHT22;168;48.872;9.226;2023-09-18T06:34:33;21.80;94.20
360;DHT22;168;48.872;9.226;2023-09-18T06:37:00;21.80;94.20
360;DHT22;168;48.872;9.226;2023-09-18T06:39:29;21.90;94.00
360;DHT22;168;48.872;9.226;2023-09-18T06:41:57;21.90;94.00
360;DHT22;168;48.872;9.226;2023-09-18T06:44:24;21.90;94.00
360;DHT22;168;48.872;9.226;2023-09-18T06:46:52;21.90;94.00
360;DHT22;168;48.872;9.226;2023-09-18T06:49:21;22.00;94.00
360;DHT22;168;48.872;9.226;2023-09-18T06:51:48;22.00;94.20
360;DHT22;168;48.872;9.226;2023-09-18T06:54:15;22.10;93.80
360;DHT22;168;48.872;9.226;2023-09-18T06:56:43;22.10;93.80
360;DHT22;168;48.872;9.226;2023-09-18T06:59:11;22.20;93.80
360;DHT22;168;48.872;9.226;2023-09-18T07:01:39;22.20;94.00
360;DHT22;168;48.872;9.226;2023-09-18T07:04:06;22.30;94.00
360;DHT22;168;48.872;9.226;2023-09-18T07:06:35;22.30;93.90
360;DHT22;168;48.872;9.226;2023-09-18T07:09:03;22.30;93.50
360;DHT22;168;48.872;9.226;2023-09-18T07:11:33;22.40;93.50
360;DHT22;168;48.872;9.226;2023-09-18T07:14:00;22.40;93.50
360;DHT22;168;48.872;9.226;2023-09-18T07:16:28;22.50;93.50
360;DHT22;168;48.872;9.226;2023-09-18T07:18:55;22.50;93.00
360;DHT22;168;48.872;9.226;2023-09-18T07:21:23;22.60;92.80
360;DHT22;168;48.872;9.226;2023-09-18T07:23:51;22.60;93.00
360;DHT22;168;48.872;9.226;2023-09-18T07:26:19;22.70;92.70
360;DHT22;168;48.872;9.226;2023-09-18T07:28:46;22.70;93.00
360;DHT22;168;48.872;9.226;2023-09-18T07:31:14;22.80;93.10
360;DHT22;168;48.872;9.226;2023-09-18T07:33:41;22.80;93.00
360;DHT22;168;48.872;9.226;2023-09-18T07:36:08;22.80;92.80
360;DHT22;168;48.872;9.226;2023-09-18T07:38:36;22.90;92.10
360;DHT22;168;48.872;9.226;2023-09-18T07:41:05;23.00;90.80
360;DHT22;168;48.872;9.226;2023-09-18T07:43:33;22.80;91.00
360;DHT22;168;48.872;9.226;2023-09-18T07:46:00;22.60;90.60
360;DHT22;168;48.872;9.226;2023-09-18T07:48:28;22.60;90.20
360;DHT22;168;48.872;9.226;2023-09-18T07:50:55;22.50;90.80
360;DHT22;168;48.872;9.226;2023-09-18T07:53:22;22.40;91.10
360;DHT22;168;48.872;9.226;2023-09-18T07:55:55;22.30;92.00
360;DHT22;168;48.872;9.226;2023-09-18T07:58:24;22.30;92.60
360;DHT22;168;48.872;9.226;2023-09-18T08:00:54;22.40;92.90
360;DHT22;168;48.872;9.226;2023-09-18T08:03:21;22.60;93.10
360;DHT22;168;48.872;9.226;2023-09-18T08:05:50;22.70;92.80
360;DHT22;168;48.872;9.226;2023-09-18T08:08:18;22.90;92.70
360;DHT22;168;48.872;9.226;2023-09-18T08:10:47;23.10;92.10
360;DHT22;168;48.872;9.226;2023-09-18T08:13:14;23.20;90.40
360;DHT22;168;48.872;9.226;2023-09-18T08:15:43;23.30;90.20
360;DHT22;168;48.872;9.226;2023-09-18T08:18:10;23.40;90.10
360;DHT22;168;48.872;9.226;2023-09-18T08:20:40;23.50;88.40
360;DHT22;168;48.872;9.226;2023-09-18T08:23:08;23.70;87.90
360;DHT22;168;48.872;9.226;2023-09-18T08:25:36;23.80;87.10
360;DHT22;168;48.872;9.226;2023-09-18T08:28:03;23.90;85.90
360;DHT22;168;48.872;9.226;2023-09-18T08:30:32;24.00;84.60
360;DHT22;168;48.872;9.226;2023-09-18T08:33:01;23.90;84.70
360;DHT22;168;48.872;9.226;2023-09-18T08:35:29;23.80;84.20
360;DHT22;168;48.872;9.226;2023-09-18T08:37:57;23.70;86.00
360;DHT22;168;48.872;9.226;2023-09-18T08:40:24;23.60;87.30
360;DHT22;168;48.872;9.226;2023-09-18T08:42:52;23.70;86.50
360;DHT22;168;48.872;9.226;2023-09-18T08:45:27;23.70;86.30
360;DHT22;168;48.872;9.226;2023-09-18T08:47:55;23.50;86.30
360;DHT22;168;48.872;9.226;2023-09-18T08:50:24;23.30;87.00
360;DHT22;168;48.872;9.226;2023-09-18T08:52:53;23.20;87.40
360;DHT22;168;48.872;9.226;2023-09-18T08:55:21;23.10;88.30
360;DHT22;168;48.872;9.226;2023-09-18T08:57:49;23.00;88.00
360;DHT22;168;48.872;9.226;2023-09-18T09:00:17;22.80;88.90
360;DHT22;168;48.872;9.226;2023-09-18T09:02:45;22.80;89.30
360;DHT22;168;48.872;9.226;2023-09-18T09:05:14;22.80;89.50
360;DHT22;168;48.872;9.226;2023-09-18T09:07:43;22.80;90.00
360;DHT22;168;48.872;9.226;2023-09-18T09:10:10;22.70;90.00
360;DHT22;168;48.872;9.226;2023-09-18T09:12:54;22.60;91.30
360;DHT22;168;48.872;9.226;2023-09-18T09:15:23;22.50;92.40
360;DHT22;168;48.872;9.226;2023-09-18T09:17:52;22.50;92.90
360;DHT22;168;48.872;9.226;2023-09-18T09:20:19;22.50;93.10
360;DHT22;168;48.872;9.226;2023-09-18T09:22:48;22.50;93.20
360;DHT22;168;48.872;9.226;2023-09-18T09:25:25;22.50;93.30
360;DHT22;168;48.872;9.226;2023-09-18T09:27:54;22.40;93.70
360;DHT22;168;48.872;9.226;2023-09-18T09:30:23;22.40;93.70
360;DHT22;168;48.872;9.226;2023-09-18T09:32:52;22.40;93.70
360;DHT22;168;48.872;9.226;2023-09-18T09:35:22;22.40;93.90
360;DHT22;168;48.872;9.226;2023-09-18T09:37:51;22.50;93.90
360;DHT22;168;48.872;9.226;2023-09-18T09:40:19;22.50;94.00
360;DHT22;168;48.872;9.226;2023-09-18T09:42:47;22.50;93.70
360;DHT22;168;48.872;9.226;2023-09-18T09:45:15;22.50;93.50
360;DHT22;168;48.872;9.226;2023-09-18T09:47:43;22.50;93.40
360;DHT22;168;48.872;9.226;2023-09-18T09:50:12;22.50;93.50
360;DHT22;168;48.872;9.226;2023-09-18T09:52:42;22.60;93.70
360;DHT22;168;48.872;9.226;2023-09-18T09:55:24;22.60;93.90
360;DHT22;168;48.872;9.226;2023-09-18T09:57:53;22.80;93.80
360;DHT22;168;48.872;9.226;2023-09-18T10:00:24;22.90;93.90
360;DHT22;168;48.872;9.226;2023-09-18T10:02:58;23.00;93.50
360;DHT22;168;48.872;9.226;2023-09-18T10:05:29;23.10;93.20
360;DHT22;168;48.872;9.226;2023-09-18T10:07:59;23.30;93.00
360;DHT22;168;48.872;9.226;2023-09-18T10:10:33;23.40;92.90
360;DHT22;168;48.872;9.226;2023-09-18T10:13:07;23.50;93.00
360;DHT22;168;48.872;9.226;2023-09-18T10:15:37;23.70;92.70
360;DHT22;168;48.872;9.226;2023-09-18T10:18:08;23.80;92.20
360;DHT22;168;48.872;9.226;2023-09-18T10:20:40;23.90;91.80
360;DHT22;168;48.872;9.226;2023-09-18T10:23:19;23.90;91.30
360;DHT22;168;48.872;9.226;2023-09-18T10:25:54;23.80;91.60
360;DHT22;168;48.872;9.226;2023-09-18T10:28:24;23.70;91.90
360;DHT22;168;48.872;9.226;2023-09-18T10:30:56;23.60;91.60
360;DHT22;168;48.872;9.226;2023-09-18T10:33:25;23.50;91.30
360;DHT22;168;48.872;9.226;2023-09-18T10:35:53;23.40;91.70
360;DHT22;168;48.872;9.226;2023-09-18T10:38:24;23.30;92.20
360;DHT22;168;48.872;9.226;2023-09-18T10:40:54;23.20;92.60
360;DHT22;168;48.872;9.226;2023-09-18T10:43:23;23.10;93.10
360;DHT22;168;48.872;9.226;2023-09-18T10:45:50;23.10;93.10
360;DHT22;168;48.872;9.226;2023-09-18T10:48:19;23.10;92.80
360;DHT22;168;48.872;9.226;2023-09-18T10:50:48;23.10;92.40
360;DHT22;168;48.872;9.226;2023-09-18T10:53:18;23.00;92.90
360;DHT22;168;48.872;9.226;2023-09-18T10:55:48;23.00;93.00
360;DHT22;168;48.872;9.226;2023-09-18T10:58:24;22.90;93.20
360;DHT22;168;48.872;9.226;2023-09-18T11:00:54;22.90;93.20
360;DHT22;168;48.872;9.226;2023-09-18T11:03:24;22.90;93.10
360;DHT22;168;48.872;9.226;2023-09-18T11:06:03;22.90;93.20
360;DHT22;168;48.872;9.226;2023-09-18T11:08:32;22.90;92.90
360;DHT22;168;48.872;9.226;2023-09-18T11:11:03;22.80;93.30
360;DHT22;168;48.872;9.226;2023-09-18T11:13:44;22.90;92.80
360;DHT22;168;48.872;9.226;2023-09-18T11:16:17;22.80;92.90
360;DHT22;168;48.872;9.226;2023-09-18T11:18:50;22.80;92.80
360;DHT22;168;48.872;9.226;2023-09-18T11:21:24;22.70;93.00
360;DHT22;168;48.872;9.226;2023-09-18T11:23:58;22.80;92.80
360;DHT22;168;48.872;9.226;2023-09-18T11:26:29;22.70;93.10
360;DHT22;168;48.872;9.226;2023-09-18T11:29:00;22.60;93.40
360;DHT22;168;48.872;9.226;2023-09-18T11:31:45;22.70;93.30
360;DHT22;168;48.872;9.226;2023-09-18T11:34:15;22.60;93.30
360;DHT22;168;48.872;9.226;2023-09-18T11:36:42;22.70;93.30
360;DHT22;168;48.872;9.226;2023-09-18T11:39:11;22.80;93.00
360;DHT22;168;48.872;9.226;2023-09-18T11:41:39;22.90;93.10
360;DHT22;168;48.872;9.226;2023-09-18T11:44:33;22.90;93.20
360;DHT22;168;48.872;9.226;2023-09-18T11:47:08;23.00;92.50
360;DHT22;168;48.872;9.226;2023-09-18T11:49:40;23.10;92.10
360;DHT22;168;48.872;9.226;2023-09-18T11:52:09;23.20;91.50
360;DHT22;168;48.872;9.226;2023-09-18T11:54:39;23.20;91.50
360;DHT22;168;48.872;9.226;2023-09-18T11:57:07;23.20;91.40
360;DHT22;168;48.872;9.226;2023-09-18T11:59:41;23.30;90.80
360;DHT22;168;48.872;9.226;2023-09-18T12:02:09;23.30;91.50
360;DHT22;168;48.872;9.226;2023-09-18T12:04:37;23.30;91.70
360;DHT22;168;48.872;9.226;2023-09-18T12:07:05;23.40;91.30
360;DHT22;168;48.872;9.226;2023-09-18T12:09:37;23.40;91.10
360;DHT22;168;48.872;9.226;2023-09-18T12:12:06;23.60;90.00
360;DHT22;168;48.872;9.226;2023-09-18T12:14:36;23.70;89.50
360;DHT22;168;48.872;9.226;2023-09-18T12:17:05;23.60;89.90
360;DHT22;168;48.872;9.226;2023-09-18T12:19:33;23.70;90.30
360;DHT22;168;48.872;9.226;2023-09-18T12:22:01;23.70;90.00
360;DHT22;168;48.872;9.226;2023-09-18T12:24:30;23.80;90.00
360;DHT22;168;48.872;9.226;2023-09-18T12:26:58;23.80;89.00
360;DHT22;168;48.872;9.226;2023-09-18T12:29:26;23.70;90.10
360;DHT22;168;48.872;9.226;2023-09-18T12:31:53;23.60;89.40
360;DHT22;168;48.872;9.226;2023-09-18T12:34:22;23.50;89.50
360;DHT22;168;48.872;9.226;2023-09-18T12:36:52;23.40;89.50
360;DHT22;168;48.872;9.226;2023-09-18T12:39:32;23.40;90.20
360;DHT22;168;48.872;9.226;2023-09-18T12:42:01;23.40;90.90
360;DHT22;168;48.872;9.226;2023-09-18T12:44:28;23.40;91.10
360;DHT22;168;48.872;9.226;2023-09-18T12:46:58;23.50;90.90
360;DHT22;168;48.872;9.226;2023-09-18T12:49:33;23.60;90.50
360;DHT22;168;48.872;9.226;2023-09-18T12:52:02;23.80;90.20
360;DHT22;168;48.872;9.226;2023-09-18T12:54:39;24.00;88.60
360;DHT22;168;48.872;9.226;2023-09-18T12:57:07;24.20;88.10
360;DHT22;168;48.872;9.226;2023-09-18T12:59:36;24.40;87.00
360;DHT22;168;48.872;9.226;2023-09-18T13:02:04;24.60;87.00
360;DHT22;168;48.872;9.226;2023-09-18T13:04:35;24.80;86.30
360;DHT22;168;48.872;9.226;2023-09-18T13:07:05;24.90;85.60
360;DHT22;168;48.872;9.226;2023-09-18T13:09:33;25.00;85.60
360;DHT22;168;48.872;9.226;2023-09-18T13:12:01;25.20;85.40
360;DHT22;168;48.872;9.226;2023-09-18T13:14:28;25.30;85.20
360;DHT22;168;48.872;9.226;2023-09-18T13:17:00;25.50;83.60
360;DHT22;168;48.872;9.226;2023-09-18T13:19:30;25.50;82.70
360;DHT22;168;48.872;9.226;2023-09-18T13:21:59;25.60;83.40
360;DHT22;168;48.872;9.226;2023-09-18T13:24:27;25.70;84.30
360;DHT22;168;48.872;9.226;2023-09-18T13:26:55;25.90;82.50
360;DHT22;168;48.872;9.226;2023-09-18T13:29:24;26.00;81.90
360;DHT22;168;48.872;9.226;2023-09-18T13:31:52;26.10;81.30
360;DHT22;168;48.872;9.226;2023-09-18T13:34:19;26.20;79.90
360;DHT22;168;48.872;9.226;2023-09-18T13:36:47;26.30;79.30
360;DHT22;168;48.872;9.226;2023-09-18T13:39:16;26.30;79.10
360;DHT22;168;48.872;9.226;2023-09-18T13:41:44;26.20;79.70
360;DHT22;168;48.872;9.226;2023-09-18T13:44:12;26.20;79.50
360;DHT22;168;48.872;9.226;2023-09-18T13:46:39;26.20;80.50
360;DHT22;168;48.872;9.226;2023-09-18T13:49:07;26.20;80.10
360;DHT22;168;48.872;9.226;2023-09-18T13:51:34;26.40;79.00
360;DHT22;168;48.872;9.226;2023-09-18T13:54:02;26.50;79.30
360;DHT22;168;48.872;9.226;2023-09-18T13:56:31;26.50;78.80
360;DHT22;168;48.872;9.226;2023-09-18T13:58:58;26.50;79.00
360;DHT22;168;48.872;9.226;2023-09-18T14:01:26;26.40;79.10
360;DHT22;168;48.872;9.226;2023-09-18T14:03:54;26.40;79.30
360;DHT22;168;48.872;9.226;2023-09-18T14:06:21;26.40;79.00
360;DHT22;168;48.872;9.226;2023-09-18T14:08:49;26.50;77.90
360;DHT22;168;48.872;9.226;2023-09-18T14:11:16;26.40;78.50
360;DHT22;168;48.872;9.226;2023-09-18T14:13:45;26.40;77.40
360;DHT22;168;48.872;9.226;2023-09-18T14:16:14;26.30;75.80
360;DHT22;168;48.872;9.226;2023-09-18T14:18:41;26.20;75.30
360;DHT22;168;48.872;9.226;2023-09-18T14:21:09;26.00;76.60
360;DHT22;168;48.872;9.226;2023-09-18T14:23:36;25.90;77.20
360;DHT22;168;48.872;9.226;2023-09-18T14:26:04;25.90;77.00
360;DHT22;168;48.872;9.226;2023-09-18T14:28:31;25.80;76.50
360;DHT22;168;48.872;9.226;2023-09-18T14:31:04;25.70;76.60
360;DHT22;168;48.872;9.226;2023-09-18T14:33:31;25.60;77.60
360;DHT22;168;48.872;9.226;2023-09-18T14:35:59;25.50;77.80
360;DHT22;168;48.872;9.226;2023-09-18T14:38:26;25.50;77.70
360;DHT22;168;48.872;9.226;2023-09-18T14:40:54;25.60;77.30
360;DHT22;168;48.872;9.226;2023-09-18T14:43:26;25.60;77.40
360;DHT22;168;48.872;9.226;2023-09-18T14:45:54;25.60;77.40
360;DHT22;168;48.872;9.226;2023-09-18T14:48:24;25.70;76.90
360;DHT22;168;48.872;9.226;2023-09-18T14:50:55;25.80;75.90
360;DHT22;168;48.872;9.226;2023-09-18T14:53:22;25.80;75.70
360;DHT22;168;48.872;9.226;2023-09-18T14:55:50;25.80;76.00
360;DHT22;168;48.872;9.226;2023-09-18T14:58:17;26.00;75.20
360;DHT22;168;48.872;9.226;2023-09-18T15:00:48;26.10;74.90
360;DHT22;168;48.872;9.226;2023-09-18T15:03:15;26.30;73.90
360;DHT22;168;48.872;9.226;2023-09-18T15:05:43;26.40;73.50
360;DHT22;168;48.872;9.226;2023-09-18T15:08:11;26.40;74.20
360;DHT22;168;48.872;9.226;2023-09-18T15:10:39;26.60;73.40
360;DHT22;168;48.872;9.226;2023-09-18T15:13:07;26.80;72.80
360;DHT22;168;48.872;9.226;2023-09-18T15:15:34;26.70;72.90
360;DHT22;168;48.872;9.226;2023-09-18T15:18:01;26.60;73.50
360;DHT22;168;48.872;9.226;2023-09-18T15:20:29;26.60;72.90
360;DHT22;168;48.872;9.226;2023-09-18T15:22:59;26.60;73.10
360;DHT22;168;48.872;9.226;2023-09-18T15:25:27;26.70;72.70
360;DHT22;168;48.872;9.226;2023-09-18T15:27:55;26.70;72.00
360;DHT22;168;48.872;9.226;2023-09-18T15:30:22;26.70;71.90
360;DHT22;168;48.872;9.226;2023-09-18T15:32:52;26.70;71.80
360;DHT22;168;48.872;9.226;2023-09-18T15:35:20;26.70;71.60
360;DHT22;168;48.872;9.226;2023-09-18T15:37:48;26.60;71.60
360;DHT22;168;48.872;9.226;2023-09-18T15:40:18;26.60;72.00
360;DHT22;168;48.872;9.226;2023-09-18T15:42:48;26.70;71.60
360;DHT22;168;48.872;9.226;2023-09-18T15:45:15;26.90;71.20
360;DHT22;168;48.872;9.226;2023-09-18T15:47:43;27.00;71.00
360;DHT22;168;48.872;9.226;2023-09-18T15:50:12;27.10;70.10
360;DHT22;168;48.872;9.226;2023-09-18T15:52:39;27.20;69.90
360;DHT22;168;48.872;9.226;2023-09-18T15:55:07;27.30;70.30
360;DHT22;168;48.872;9.226;2023-09-18T15:57:37;27.40;69.70
360;DHT22;168;48.872;9.226;2023-09-18T16:00:07;27.60;69.10
360;DHT22;168;48.872;9.226;2023-09-18T16:02:35;27.80;67.90
360;DHT22;168;48.872;9.226;2023-09-18T16:05:03;27.80;67.90
360;DHT22;168;48.872;9.226;2023-09-18T16:07:32;27.80;68.20
360;DHT22;168;48.872;9.226;2023-09-18T16:10:01;27.80;68.20
360;DHT22;168;48.872;9.226;2023-09-18T16:12:28;27.60;68.20
360;DHT22;168;48.872;9.226;2023-09-18T16:14:57;27.40;69.00
360;DHT22;168;48.872;9.226;2023-09-18T16:17:25;27.10;69.10
360;DHT22;168;48.872;9.226;2023-09-18T16:19:52;26.80;70.10
360;DHT22;168;48.872;9.226;2023-09-18T16:22:20;26.50;70.80
360;DHT22;168;48.872;9.226;2023-09-18T16:24:47;26.20;72.00
360;DHT22;168;48.872;9.226;2023-09-18T16:27:14;26.00;71.90
360;DHT22;168;48.872;9.226;2023-09-18T16:29:42;25.80;72.20
360;DHT22;168;48.872;9.226;2023-09-18T16:32:11;25.50;73.40
360;DHT22;168;48.872;9.226;2023-09-18T16:34:38;25.20;74.30
360;DHT22;168;48.872;9.226;2023-09-18T16:37:05;25.00;73.80
360;DHT22;168;48.872;9.226;2023-09-18T16:39:33;24.80;74.80
360;DHT22;168;48.872;9.226;2023-09-18T16:42:01;24.50;76.00
360;DHT22;168;48.872;9.226;2023-09-18T16:44:28;24.40;76.50